sensor_id;sensor_type;location;lat;lon;timestamp;pressure;altitude;pressure_sealevel;temperature;humidity
39083;BME280;24834;44.444;26.098;2023-04-04T00:00:27;100004.06;;;7.81;
39083;BME280;24834;44.444;26.098;2023-04-04T00:06:29;100001.47;;;7.76;
39083;BME280;24834;44.444;26.098;2023-04-04T00:12:32;99981.06;;;7.78;
39083;BME280;24834;44.444;26.098;2023-04-04T00:18:35;99981.59;;;7.70;
39083;BME280;24834;44.444;26.098;2023-04-04T00:24:38;99994.69;;;7.75;
39083;BME280;24834;44.444;26.098;2023-04-04T00:30:41;99979.75;;;7.76;
39083;BME280;24834;44.444;26.098;2023-04-04T00:36:45;99981.06;;;7.68;
39083;BME280;24834;44.444;26.098;2023-04-04T00:42:52;99956.28;;;7.61;
39083;BME280;24834;44.444;26.098;2023-04-04T00:48:54;99940.31;;;7.57;
39083;BME280;24834;44.444;26.098;2023-04-04T00:55:03;99975.88;;;7.58;
39083;BME280;24834;44.444;26.098;2023-04-04T01:01:07;99996.31;;;7.51;
39083;BME280;24834;44.444;26.098;2023-04-04T01:07:12;99947.16;;;7.33;
39083;BME280;24834;44.444;26.098;2023-04-04T01:13:16;99926.84;;;7.05;
39083;BME280;24834;44.444;26.098;2023-04-04T01:19:47;99944.09;;;7.01;
39083;BME280;24834;44.444;26.098;2023-04-04T01:26:02;99954.03;;;6.88;
39083;BME280;24834;44.444;26.098;2023-04-04T01:39:04;99956.63;;;7.04;
39083;BME280;24834;44.444;26.098;2023-04-04T01:45:09;99945.88;;;7.20;
39083;BME280;24834;44.444;26.098;2023-04-04T01:51:11;99955.59;;;7.05;
39083;BME280;24834;44.444;26.098;2023-04-04T01:57:17;99934.16;;;7.03;
39083;BME280;24834;44.444;26.098;2023-04-04T02:03:22;99899.13;;;6.83;
39083;BME280;24834;44.444;26.098;2023-04-04T02:09:27;99874.63;;;6.79;
39083;BME280;24834;44.444;26.098;2023-04-04T02:15:30;99894.19;;;6.72;
39083;BME280;24834;44.444;26.098;2023-04-04T02:21:43;99898.91;;;6.75;
39083;BME280;24834;44.444;26.098;2023-04-04T02:27:48;99905.41;;;6.72;
39083;BME280;24834;44.444;26.098;2023-04-04T02:33:52;99893.91;;;6.98;
39083;BME280;24834;44.444;26.098;2023-04-04T02:39:59;99878.50;;;6.72;
39083;BME280;24834;44.444;26.098;2023-04-04T02:46:01;99837.25;;;6.79;
39083;BME280;24834;44.444;26.098;2023-04-04T02:52:29;99867.00;;;6.83;
39083;BME280;24834;44.444;26.098;2023-04-04T02:58:41;99872.53;;;6.81;
39083;BME280;24834;44.444;26.098;2023-04-04T03:04:45;99900.72;;;6.84;
39083;BME280;24834;44.444;26.098;2023-04-04T03:10:47;99894.97;;;6.82;
39083;BME280;24834;44.444;26.098;2023-04-04T03:16:50;99881.13;;;6.77;
39083;BME280;24834;44.444;26.098;2023-04-04T03:22:53;99873.03;;;6.93;
39083;BME280;24834;44.444;26.098;2023-04-04T03:28:55;99906.47;;;6.86;
39083;BME280;24834;44.444;26.098;2023-04-04T03:35:00;99886.09;;;6.68;
39083;BME280;24834;44.444;26.098;2023-04-04T03:41:04;99869.63;;;6.73;
39083;BME280;24834;44.444;26.098;2023-04-04T03:47:07;99878.00;;;6.65;
39083;BME280;24834;44.444;26.098;2023-04-04T03:53:12;99873.31;;;6.62;
39083;BME280;24834;44.444;26.098;2023-04-04T03:59:16;99884.28;;;6.64;
39083;BME280;24834;44.444;26.098;2023-04-04T04:05:21;99869.88;;;6.71;
39083;BME280;24834;44.444;26.098;2023-04-04T04:11:28;99876.41;;;6.84;
